sensor_id;sensor_type;location;lat;lon;timestamp;pressure;altitude;pressure_sealevel;temperature;humidity
80118;BME280;69424;48.770;-1.564;2023-05-10T00:01:24;101593.16;;;12.33;82.25
80118;BME280;69424;48.770;-1.564;2023-05-10T00:03:52;101592.58;;;12.29;82.50
80118;BME280;69424;48.770;-1.564;2023-05-10T00:06:20;101596.08;;;12.26;82.30
80118;BME280;69424;48.770;-1.564;2023-05-10T00:08:48;101592.38;;;12.27;82.46
80118;BME280;69424;48.770;-1.564;2023-05-10T00:11:16;101594.54;;;12.28;81.94
80118;BME280;69424;48.770;-1.564;2023-05-10T00:13:44;101592.42;;;12.31;82.38
80118;BME280;69424;48.770;-1.564;2023-05-10T00:16:12;101592.48;;;12.34;82.49
80118;BME280;69424;48.770;-1.564;2023-05-10T00:18:41;101590.73;;;12.36;82.55
80118;BME280;69424;48.770;-1.564;2023-05-10T00:21:09;101597.70;;;12.39;81.99
80118;BME280;69424;48.770;-1.564;2023-05-10T00:23:37;101600.58;;;12.41;81.93
80118;BME280;69424;48.770;-1.564;2023-05-10T00:26:05;101603.23;;;12.41;81.38
80118;BME280;69424;48.770;-1.564;2023-05-10T00:28:33;101598.07;;;12.39;81.44
80118;BME280;69424;48.770;-1.564;2023-05-10T00:31:03;101592.56;;;12.40;81.73
80118;BME280;69424;48.770;-1.564;2023-05-10T00:33:31;101594.53;;;12.40;81.76
80118;BME280;69424;48.770;-1.564;2023-05-10T00:35:59;101601.50;;;12.43;82.00
80118;BME280;69424;48.770;-1.564;2023-05-10T00:38:27;101601.66;;;12.42;81.15
80118;BME280;69424;48.770;-1.564;2023-05-10T00:40:55;101606.19;;;12.38;81.43
80118;BME280;69424;48.770;-1.564;2023-05-10T00:43:27;101605.45;;;12.35;81.64
80118;BME280;69424;48.770;-1.564;2023-05-10T00:45:55;101605.64;;;12.36;81.76
80118;BME280;69424;48.770;-1.564;2023-05-10T00:48:23;101605.30;;;12.37;81.65
80118;BME280;69424;48.770;-1.564;2023-05-10T00:50:52;101613.09;;;12.37;81.51
80118;BME280;69424;48.770;-1.564;2023-05-10T00:53:20;101618.08;;;12.37;81.00
80118;BME280;69424;48.770;-1.564;2023-05-10T00:55:48;101615.05;;;12.37;80.97
80118;BME280;69424;48.770;-1.564;2023-05-10T00:58:16;101611.33;;;12.37;80.76
80118;BME280;69424;48.770;-1.564;2023-05-10T01:00:46;101621.24;;;12.36;80.52
80118;BME280;69424;48.770;-1.564;2023-05-10T01:03:14;101615.96;;;12.37;80.46
80118;BME280;69424;48.770;-1.564;2023-05-10T01:05:42;101613.15;;;12.40;80.48
80118;BME280;69424;48.770;-1.564;2023-05-10T01:08:10;101611.04;;;12.40;80.57
80118;BME280;69424;48.770;-1.564;2023-05-10T01:10:38;101614.16;;;12.37;80.56
80118;BME280;69424;48.770;-1.564;2023-05-10T01:13:07;101617.30;;;12.33;80.72
80118;BME280;69424;48.770;-1.564;2023-05-10T01:15:36;101611.59;;;12.31;80.51
80118;BME280;69424;48.770;-1.564;2023-05-10T01:18:04;101611.08;;;12.32;80.16
80118;BME280;69424;48.770;-1.564;2023-05-10T01:20:40;101611.45;;;12.33;80.78
80118;BME280;69424;48.770;-1.564;2023-05-10T01:31:31;101606.36;;;12.37;81.30
80118;BME280;69424;48.770;-1.564;2023-05-10T01:34:18;101610.98;;;12.38;80.57
80118;BME280;69424;48.770;-1.564;2023-05-10T01:36:55;101607.05;;;12.36;80.52
80118;BME280;69424;48.770;-1.564;2023-05-10T01:42:17;101609.97;;;12.29;80.44
80118;BME280;69424;48.770;-1.564;2023-05-10T01:47:32;101603.96;;;12.31;81.19
80118;BME280;69424;48.770;-1.564;2023-05-10T01:50:06;101606.67;;;12.34;81.24
80118;BME280;69424;48.770;-1.564;2023-05-10T01:52:42;101604.09;;;12.39;81.03
80118;BME280;69424;48.770;-1.564;2023-05-10T01:55:14;101603.95;;;12.41;81.01
80118;BME280;69424;48.770;-1.564;2023-05-10T01:57:46;101603.45;;;12.43;81.04
80118;BME280;69424;48.770;-1.564;2023-05-10T02:00:16;101606.30;;;12.44;81.09
80118;BME280;69424;48.770;-1.564;2023-05-10T02:02:48;101607.16;;;12.43;81.22
80118;BME280;69424;48.770;-1.564;2023-05-10T02:05:17;101607.08;;;12.37;81.13
80118;BME280;69424;48.770;-1.564;2023-05-10T02:07:47;101605.27;;;12.34;81.06
80118;BME280;69424;48.770;-1.564;2023-05-10T02:10:15;101611.09;;;12.33;80.72
80118;BME280;69424;48.770;-1.564;2023-05-10T02:12:47;101616.39;;;12.32;80.69
80118;BME280;69424;48.770;-1.564;2023-05-10T02:15:20;101613.35;;;12.30;80.83
80118;BME280;69424;48.770;-1.564;2023-05-10T02:17:50;101612.65;;;12.30;81.07
80118;BME280;69424;48.770;-1.564;2023-05-10T02:20:21;101613.87;;;12.30;81.55
80118;BME280;69424;48.770;-1.564;2023-05-10T02:22:53;101614.79;;;12.31;81.46
80118;BME280;69424;48.770;-1.564;2023-05-10T02:25:23;101615.69;;;12.32;81.30
80118;BME280;69424;48.770;-1.564;2023-05-10T02:27:56;101614.65;;;12.34;81.87
80118;BME280;69424;48.770;-1.564;2023-05-10T02:30:25;101616.80;;;12.36;81.51
80118;BME280;69424;48.770;-1.564;2023-05-10T02:32:54;101620.39;;;12.38;81.69
80118;BME280;69424;48.770;-1.564;2023-05-10T02:35:25;101619.81;;;12.36;81.20
80118;BME280;69424;48.770;-1.564;2023-05-10T02:37:54;101620.14;;;12.34;81.52
80118;BME280;69424;48.770;-1.564;2023-05-10T02:40:23;101625.83;;;12.35;81.19
80118;BME280;69424;48.770;-1.564;2023-05-10T02:42:56;101630.98;;;12.35;81.03
80118;BME280;69424;48.770;-1.564;2023-05-10T02:45:29;101626.90;;;12.34;80.45
80118;BME280;69424;48.770;-1.564;2023-05-10T02:47:58;101628.85;;;12.34;80.76
80118;BME280;69424;48.770;-1.564;2023-05-10T02:50:28;101631.52;;;12.36;80.32
80118;BME280;69424;48.770;-1.564;2023-05-10T02:53:00;101629.75;;;12.36;80.59
80118;BME280;69424;48.770;-1.564;2023-05-10T02:55:35;101623.54;;;12.35;80.62
80118;BME280;69424;48.770;-1.564;2023-05-10T02:58:04;101628.16;;;12.36;81.09
80118;BME280;69424;48.770;-1.564;2023-05-10T03:00:33;101627.30;;;12.39;81.39
80118;BME280;69424;48.770;-1.564;2023-05-10T03:03:01;101631.81;;;12.42;81.18
80118;BME280;69424;48.770;-1.564;2023-05-10T03:05:30;101631.27;;;12.41;81.34
80118;BME280;69424;48.770;-1.564;2023-05-10T03:08:00;101627.13;;;12.38;81.52
80118;BME280;69424;48.770;-1.564;2023-05-10T03:10:32;101636.70;;;12.37;81.03
80118;BME280;69424;48.770;-1.564;2023-05-10T03:13:10;101634.40;;;12.38;80.75
80118;BME280;69424;48.770;-1.564;2023-05-10T03:16:02;101632.27;;;12.38;81.15
80118;BME280;69424;48.770;-1.564;2023-05-10T03:18:47;101633.88;;;12.38;81.19
80118;BME280;69424;48.770;-1.564;2023-05-10T03:21:19;101637.59;;;12.38;80.47
80118;BME280;69424;48.770;-1.564;2023-05-10T03:24:09;101637.94;;;12.37;79.90
80118;BME280;69424;48.770;-1.564;2023-05-10T03:26:43;101644.14;;;12.37;80.15
80118;BME280;69424;48.770;-1.564;2023-05-10T03:29:14;101642.86;;;12.34;80.40
80118;BME280;69424;48.770;-1.564;2023-05-10T03:31:43;101646.00;;;12.31;80.11
80118;BME280;69424;48.770;-1.564;2023-05-10T03:34:12;101645.61;;;12.29;80.64
80118;BME280;69424;48.770;-1.564;2023-05-10T03:36:40;101641.02;;;12.29;80.90
80118;BME280;69424;48.770;-1.564;2023-05-10T03:39:08;101648.45;;;12.29;80.48
80118;BME280;69424;48.770;-1.564;2023-05-10T03:41:37;101651.61;;;12.27;80.26
80118;BME280;69424;48.770;-1.564;2023-05-10T03:44:05;101651.40;;;12.25;80.47
80118;BME280;69424;48.770;-1.564;2023-05-10T03:46:33;101651.92;;;12.25;80.36
80118;BME280;69424;48.770;-1.564;2023-05-10T03:49:03;101648.73;;;12.24;80.70
80118;BME280;69424;48.770;-1.564;2023-05-10T03:51:31;101650.32;;;12.25;80.54
80118;BME280;69424;48.770;-1.564;2023-05-10T03:53:59;101648.58;;;12.25;80.77
80118;BME280;69424;48.770;-1.564;2023-05-10T03:56:27;101642.86;;;12.24;80.86
80118;BME280;69424;48.770;-1.564;2023-05-10T03:58:56;101649.92;;;12.21;80.73
80118;BME280;69424;48.770;-1.564;2023-05-10T04:01:24;101650.23;;;12.19;80.33
80118;BME280;69424;48.770;-1.564;2023-05-10T04:03:52;101651.45;;;12.18;79.84
80118;BME280;69424;48.770;-1.564;2023-05-10T04:06:20;101649.67;;;12.18;79.87
80118;BME280;69424;48.770;-1.564;2023-05-10T04:08:48;101652.13;;;12.16;79.82
80118;BME280;69424;48.770;-1.564;2023-05-10T04:11:16;101651.08;;;12.17;80.16
80118;BME280;69424;48.770;-1.564;2023-05-10T04:13:44;101656.25;;;12.18;80.11
80118;BME280;69424;48.770;-1.564;2023-05-10T04:16:12;101652.20;;;12.20;80.22
80118;BME280;69424;48.770;-1.564;2023-05-10T04:18:40;101657.12;;;12.18;80.19
80118;BME280;69424;48.770;-1.564;2023-05-10T04:21:12;101655.48;;;12.14;80.78
80118;BME280;69424;48.770;-1.564;2023-05-10T04:23:41;101658.30;;;12.13;81.09
80118;BME280;69424;48.770;-1.564;2023-05-10T04:26:09;101659.55;;;12.14;81.07
80118;BME280;69424;48.770;-1.564;2023-05-10T04:28:37;101659.05;;;12.16;81.13
80118;BME280;69424;48.770;-1.564;2023-05-10T04:31:06;101661.77;;;12.19;80.99
80118;BME280;69424;48.770;-1.564;2023-05-10T04:33:35;101657.88;;;12.21;80.91
80118;BME280;69424;48.770;-1.564;2023-05-10T04:36:04;101661.80;;;12.21;80.49
80118;BME280;69424;48.770;-1.564;2023-05-10T04:38:32;101661.81;;;12.22;80.49
80118;BME280;69424;48.770;-1.564;2023-05-10T04:41:07;101659.18;;;12.24;80.91
80118;BME280;69424;48.770;-1.564;2023-05-10T04:43:36;101658.08;;;12.22;80.73
80118;BME280;69424;48.770;-1.564;2023-05-10T04:46:05;101657.34;;;12.20;80.94
80118;BME280;69424;48.770;-1.564;2023-05-10T04:48:33;101657.19;;;12.21;80.60
80118;BME280;69424;48.770;-1.564;2023-05-10T04:51:02;101663.56;;;12.21;80.60
80118;BME280;69424;48.770;-1.564;2023-05-10T04:53:32;101665.20;;;12.23;80.64
80118;BME280;69424;48.770;-1.564;2023-05-10T04:56:00;101668.79;;;12.26;80.93
80118;BME280;69424;48.770;-1.564;2023-05-10T04:58:28;101670.41;;;12.27;80.50
80118;BME280;69424;48.770;-1.564;2023-05-10T05:00:56;101666.20;;;12.30;80.82
80118;BME280;69424;48.770;-1.564;2023-05-10T05:03:24;101671.91;;;12.32;80.83
80118;BME280;69424;48.770;-1.564;2023-05-10T05:05:53;101670.50;;;12.33;81.12
80118;BME280;69424;48.770;-1.564;2023-05-10T05:08:21;101672.23;;;12.31;80.88
80118;BME280;69424;48.770;-1.564;2023-05-10T05:10:49;101677.92;;;12.31;80.66
80118;BME280;69424;48.770;-1.564;2023-05-10T05:13:18;101679.70;;;12.32;80.70
80118;BME280;69424;48.770;-1.564;2023-05-10T05:15:46;101678.13;;;12.32;80.84
80118;BME280;69424;48.770;-1.564;2023-05-10T05:18:15;101678.88;;;12.35;80.75
80118;BME280;69424;48.770;-1.564;2023-05-10T05:20:43;101679.63;;;12.37;80.83
80118;BME280;69424;48.770;-1.564;2023-05-10T05:23:11;101683.02;;;12.39;81.54
80118;BME280;69424;48.770;-1.564;2023-05-10T05:25:39;101686.27;;;12.42;81.69
80118;BME280;69424;48.770;-1.564;2023-05-10T05:28:07;101687.96;;;12.48;81.18
80118;BME280;69424;48.770;-1.564;2023-05-10T05:30:35;101686.64;;;12.55;80.71
80118;BME280;69424;48.770;-1.564;2023-05-10T05:33:03;101690.78;;;12.58;80.90
80118;BME280;69424;48.770;-1.564;2023-05-10T05:35:32;101694.54;;;12.60;80.77
80118;BME280;69424;48.770;-1.564;2023-05-10T05:38:00;101695.03;;;12.58;81.02
80118;BME280;69424;48.770;-1.564;2023-05-10T05:40:28;101698.95;;;12.59;80.79
80118;BME280;69424;48.770;-1.564;2023-05-10T05:42:56;101696.70;;;12.62;80.85
80118;BME280;69424;48.770;-1.564;2023-05-10T05:45:24;101702.08;;;12.65;80.81
80118;BME280;69424;48.770;-1.564;2023-05-10T05:47:52;101708.88;;;12.69;80.42
80118;BME280;69424;48.770;-1.564;2023-05-10T05:50:21;101703.83;;;12.75;79.99
80118;BME280;69424;48.770;-1.564;2023-05-10T05:52:49;101705.73;;;12.83;79.85
80118;BME280;69424;48.770;-1.564;2023-05-10T05:55:17;101711.33;;;12.90;80.32
80118;BME280;69424;48.770;-1.564;2023-05-10T05:57:45;101708.70;;;12.93;79.19
80118;BME280;69424;48.770;-1.564;2023-05-10T06:00:14;101708.84;;;12.89;79.70
80118;BME280;69424;48.770;-1.564;2023-05-10T06:02:42;101712.23;;;12.91;80.06
80118;BME280;69424;48.770;-1.564;2023-05-10T06:05:10;101710.70;;;12.95;80.04
80118;BME280;69424;48.770;-1.564;2023-05-10T06:07:38;101712.36;;;12.99;80.26
80118;BME280;69424;48.770;-1.564;2023-05-10T06:10:09;101715.08;;;13.03;80.03
80118;BME280;69424;48.770;-1.564;2023-05-10T06:12:37;101720.77;;;13.03;79.60
80118;BME280;69424;48.770;-1.564;2023-05-10T06:15:06;101715.27;;;13.04;79.54
80118;BME280;69424;48.770;-1.564;2023-05-10T06:17:34;101715.27;;;13.05;80.16
80118;BME280;69424;48.770;-1.564;2023-05-10T06:20:02;101718.59;;;13.01;79.86
80118;BME280;69424;48.770;-1.564;2023-05-10T06:22:31;101720.73;;;13.02;80.09
80118;BME280;69424;48.770;-1.564;2023-05-10T06:24:59;101719.34;;;13.03;80.17
80118;BME280;69424;48.770;-1.564;2023-05-10T06:27:27;101717.44;;;13.07;80.49
80118;BME280;69424;48.770;-1.564;2023-05-10T06:29:55;101718.41;;;13.13;80.19
80118;BME280;69424;48.770;-1.564;2023-05-10T06:32:39;101720.60;;;13.16;79.99
80118;BME280;69424;48.770;-1.564;2023-05-10T06:35:08;101725.61;;;13.19;79.88
80118;BME280;69424;48.770;-1.564;2023-05-10T06:37:36;101724.77;;;13.23;79.32
80118;BME280;69424;48.770;-1.564;2023-05-10T06:40:05;101725.10;;;13.22;78.98
80118;BME280;69424;48.770;-1.564;2023-05-10T06:42:33;101729.52;;;13.19;79.66
80118;BME280;69424;48.770;-1.564;2023-05-10T06:45:02;101729.19;;;13.22;80.25
80118;BME280;69424;48.770;-1.564;2023-05-10T06:47:30;101727.61;;;13.22;80.31
80118;BME280;69424;48.770;-1.564;2023-05-10T06:49:59;101725.14;;;13.24;80.46
80118;BME280;69424;48.770;-1.564;2023-05-10T06:52:27;101726.02;;;13.23;80.51
80118;BME280;69424;48.770;-1.564;2023-05-10T06:54:56;101730.09;;;13.23;80.76
80118;BME280;69424;48.770;-1.564;2023-05-10T06:57:25;101730.99;;;13.24;80.55
80118;BME280;69424;48.770;-1.564;2023-05-10T06:59:59;101734.73;;;13.25;80.51
80118;BME280;69424;48.770;-1.564;2023-05-10T07:02:27;101732.06;;;13.24;80.27
80118;BME280;69424;48.770;-1.564;2023-05-10T07:04:56;101729.08;;;13.26;80.07
80118;BME280;69424;48.770;-1.564;2023-05-10T07:07:28;101731.59;;;13.28;80.07
80118;BME280;69424;48.770;-1.564;2023-05-10T07:09:57;101732.34;;;13.30;80.33
80118;BME280;69424;48.770;-1.564;2023-05-10T07:12:25;101729.73;;;13.33;80.63
80118;BME280;69424;48.770;-1.564;2023-05-10T07:14:53;101729.78;;;13.37;81.30
80118;BME280;69424;48.770;-1.564;2023-05-10T07:17:22;101727.51;;;13.38;81.14
80118;BME280;69424;48.770;-1.564;2023-05-10T07:19:50;101732.29;;;13.38;81.41
80118;BME280;69424;48.770;-1.564;2023-05-10T07:22:18;101728.70;;;13.36;81.18
80118;BME280;69424;48.770;-1.564;2023-05-10T07:24:46;101738.19;;;13.29;80.94
80118;BME280;69424;48.770;-1.564;2023-05-10T07:27:14;101747.73;;;13.26;81.45
80118;BME280;69424;48.770;-1.564;2023-05-10T07:29:42;101751.23;;;13.24;82.10
80118;BME280;69424;48.770;-1.564;2023-05-10T07:32:10;101747.46;;;13.19;82.20
80118;BME280;69424;48.770;-1.564;2023-05-10T07:34:38;101748.52;;;13.18;82.33
80118;BME280;69424;48.770;-1.564;2023-05-10T07:37:06;101750.77;;;13.16;82.96
80118;BME280;69424;48.770;-1.564;2023-05-10T07:39:35;101751.88;;;13.17;83.05
80118;BME280;69424;48.770;-1.564;2023-05-10T07:42:03;101745.98;;;13.15;83.18
80118;BME280;69424;48.770;-1.564;2023-05-10T07:44:31;101738.80;;;13.11;83.23
80118;BME280;69424;48.770;-1.564;2023-05-10T07:46:59;101735.14;;;13.03;83.62
80118;BME280;69424;48.770;-1.564;2023-05-10T07:49:27;101731.90;;;12.99;84.14
80118;BME280;69424;48.770;-1.564;2023-05-10T07:51:55;101736.86;;;12.99;84.10
80118;BME280;69424;48.770;-1.564;2023-05-10T07:54:23;101737.95;;;13.01;84.02
80118;BME280;69424;48.770;-1.564;2023-05-10T07:56:51;101741.42;;;13.08;84.07
80118;BME280;69424;48.770;-1.564;2023-05-10T07:59:19;101740.46;;;13.15;83.16
80118;BME280;69424;48.770;-1.564;2023-05-10T08:01:47;101738.77;;;13.21;83.48
80118;BME280;69424;48.770;-1.564;2023-05-10T08:04:15;101734.70;;;13.23;83.30
80118;BME280;69424;48.770;-1.564;2023-05-10T08:06:43;101737.42;;;13.26;83.28
80118;BME280;69424;48.770;-1.564;2023-05-10T08:09:12;101737.30;;;13.29;82.84
80118;BME280;69424;48.770;-1.564;2023-05-10T08:11:40;101737.75;;;13.34;83.17
80118;BME280;69424;48.770;-1.564;2023-05-10T08:14:08;101736.34;;;13.36;83.06
80118;BME280;69424;48.770;-1.564;2023-05-10T08:16:36;101738.29;;;13.35;83.16
80118;BME280;69424;48.770;-1.564;2023-05-10T08:19:04;101742.04;;;13.35;82.91
80118;BME280;69424;48.770;-1.564;2023-05-10T08:21:33;101744.88;;;13.36;82.78
80118;BME280;69424;48.770;-1.564;2023-05-10T08:24:01;101746.01;;;13.40;82.84
80118;BME280;69424;48.770;-1.564;2023-05-10T08:26:30;101750.49;;;13.44;82.54
80118;BME280;69424;48.770;-1.564;2023-05-10T08:28:58;101749.13;;;13.49;82.20
80118;BME280;69424;48.770;-1.564;2023-05-10T08:31:26;101747.29;;;13.57;81.91
80118;BME280;69424;48.770;-1.564;2023-05-10T08:33:54;101744.58;;;13.68;81.97
80118;BME280;69424;48.770;-1.564;2023-05-10T08:36:23;101751.41;;;13.74;81.81
80118;BME280;69424;48.770;-1.564;2023-05-10T08:38:52;101749.00;;;13.82;81.61
80118;BME280;69424;48.770;-1.564;2023-05-10T08:41:21;101755.79;;;13.84;81.52
80118;BME280;69424;48.770;-1.564;2023-05-10T08:43:52;101759.27;;;13.93;81.29
80118;BME280;69424;48.770;-1.564;2023-05-10T08:46:22;101758.54;;;14.07;80.68
80118;BME280;69424;48.770;-1.564;2023-05-10T08:48:51;101757.66;;;14.25;80.52
80118;BME280;69424;48.770;-1.564;2023-05-10T08:51:23;101754.86;;;14.49;79.88
80118;BME280;69424;48.770;-1.564;2023-05-10T08:53:54;101754.72;;;14.70;79.24
80118;BME280;69424;48.770;-1.564;2023-05-10T08:56:23;101759.98;;;14.82;78.50
80118;BME280;69424;48.770;-1.564;2023-05-10T08:58:51;101761.52;;;14.95;78.58
80118;BME280;69424;48.770;-1.564;2023-05-10T09:01:21;101757.50;;;15.10;78.38
80118;BME280;69424;48.770;-1.564;2023-05-10T09:03:50;101764.89;;;15.19;76.91
80118;BME280;69424;48.770;-1.564;2023-05-10T09:06:19;101765.96;;;15.21;76.93
80118;BME280;69424;48.770;-1.564;2023-05-10T09:08:47;101768.98;;;15.23;77.10
80118;BME280;69424;48.770;-1.564;2023-05-10T09:11:16;101767.92;;;15.22;77.08
80118;BME280;69424;48.770;-1.564;2023-05-10T09:13:46;101770.94;;;15.18;77.05
80118;BME280;69424;48.770;-1.564;2023-05-10T09:16:15;101772.85;;;15.13;76.76
80118;BME280;69424;48.770;-1.564;2023-05-10T09:18:49;101775.15;;;15.11;76.75
80118;BME280;69424;48.770;-1.564;2023-05-10T09:21:19;101779.61;;;15.11;76.62
80118;BME280;69424;48.770;-1.564;2023-05-10T09:23:48;101776.04;;;15.12;76.84
80118;BME280;69424;48.770;-1.564;2023-05-10T09:26:22;101778.38;;;15.15;76.14
80118;BME280;69424;48.770;-1.564;2023-05-10T09:28:53;101784.61;;;15.13;76.42
80118;BME280;69424;48.770;-1.564;2023-05-10T09:31:22;101789.05;;;15.11;76.44
80118;BME280;69424;48.770;-1.564;2023-05-10T09:33:53;101791.17;;;15.12;76.98
80118;BME280;69424;48.770;-1.564;2023-05-10T09:36:21;101801.18;;;15.16;76.34
80118;BME280;69424;48.770;-1.564;2023-05-10T09:38:51;101799.61;;;15.17;76.22
80118;BME280;69424;48.770;-1.564;2023-05-10T09:41:21;101798.21;;;15.23;76.43
80118;BME280;69424;48.770;-1.564;2023-05-10T09:43:55;101798.59;;;15.26;75.51
80118;BME280;69424;48.770;-1.564;2023-05-10T09:46:23;101798.07;;;15.28;75.97
80118;BME280;69424;48.770;-1.564;2023-05-10T09:48:51;101801.65;;;15.29;74.80
80118;BME280;69424;48.770;-1.564;2023-05-10T09:51:24;101799.66;;;15.27;75.77
80118;BME280;69424;48.770;-1.564;2023-05-10T09:54:15;101806.29;;;15.32;75.42
80118;BME280;69424;48.770;-1.564;2023-05-10T09:56:44;101809.17;;;15.36;75.39
80118;BME280;69424;48.770;-1.564;2023-05-10T09:59:12;101808.86;;;15.43;75.68
80118;BME280;69424;48.770;-1.564;2023-05-10T10:01:41;101814.46;;;15.56;74.94
80118;BME280;69424;48.770;-1.564;2023-05-10T10:04:10;101817.24;;;15.75;74.28
80118;BME280;69424;48.770;-1.564;2023-05-10T10:06:39;101818.23;;;15.93;72.91
80118;BME280;69424;48.770;-1.564;2023-05-10T10:09:08;101818.81;;;16.03;72.22
80118;BME280;69424;48.770;-1.564;2023-05-10T10:11:38;101816.31;;;16.05;72.71
80118;BME280;69424;48.770;-1.564;2023-05-10T10:14:06;101821.35;;;16.16;73.08
80118;BME280;69424;48.770;-1.564;2023-05-10T10:16:34;101815.13;;;16.23;72.50
80118;BME280;69424;48.770;-1.564;2023-05-10T10:19:02;101822.06;;;16.15;71.69
80118;BME280;69424;48.770;-1.564;2023-05-10T10:21:31;101822.94;;;16.08;71.96
80118;BME280;69424;48.770;-1.564;2023-05-10T10:23:59;101823.98;;;16.01;72.09
80118;BME280;69424;48.770;-1.564;2023-05-10T10:26:27;101818.97;;;15.99;72.30
80118;BME280;69424;48.770;-1.564;2023-05-10T10:32:22;101827.96;;;16.19;71.91
80118;BME280;69424;48.770;-1.564;2023-05-10T10:34:54;101824.27;;;16.41;71.08
80118;BME280;69424;48.770;-1.564;2023-05-10T10:37:23;101821.79;;;16.45;69.71
80118;BME280;69424;48.770;-1.564;2023-05-10T10:39:52;101821.06;;;16.42;69.82
80118;BME280;69424;48.770;-1.564;2023-05-10T10:42:46;101818.38;;;16.44;70.00
80118;BME280;69424;48.770;-1.564;2023-05-10T10:45:15;101819.84;;;16.55;69.16
80118;BME280;69424;48.770;-1.564;2023-05-10T10:47:44;101825.19;;;16.58;69.10
80118;BME280;69424;48.770;-1.564;2023-05-10T10:50:13;101824.66;;;16.62;68.53
80118;BME280;69424;48.770;-1.564;2023-05-10T10:52:42;101821.10;;;16.65;68.67
80118;BME280;69424;48.770;-1.564;2023-05-10T10:55:17;101824.14;;;16.72;68.53
80118;BME280;69424;48.770;-1.564;2023-05-10T10:57:51;101822.70;;;16.70;67.85
80118;BME280;69424;48.770;-1.564;2023-05-10T11:02:53;101814.67;;;16.77;68.04
80118;BME280;69424;48.770;-1.564;2023-05-10T11:05:35;101821.65;;;16.81;67.60
80118;BME280;69424;48.770;-1.564;2023-05-10T11:08:30;101819.71;;;16.87;66.51
80118;BME280;69424;48.770;-1.564;2023-05-10T11:13:34;101815.08;;;16.92;67.49
80118;BME280;69424;48.770;-1.564;2023-05-10T11:16:23;101810.77;;;16.96;67.00
80118;BME280;69424;48.770;-1.564;2023-05-10T11:19:01;101805.59;;;16.97;66.82
80118;BME280;69424;48.770;-1.564;2023-05-10T11:21:31;101805.96;;;17.00;67.56
80118;BME280;69424;48.770;-1.564;2023-05-10T11:24:01;101807.38;;;17.09;66.72
80118;BME280;69424;48.770;-1.564;2023-05-10T11:26:35;101808.63;;;17.10;66.61
80118;BME280;69424;48.770;-1.564;2023-05-10T11:29:03;101807.91;;;17.09;66.88
80118;BME280;69424;48.770;-1.564;2023-05-10T11:31:32;101810.40;;;17.14;66.39
80118;BME280;69424;48.770;-1.564;2023-05-10T11:34:01;101804.13;;;17.30;66.97
80118;BME280;69424;48.770;-1.564;2023-05-10T11:36:34;101809.45;;;17.47;66.86
80118;BME280;69424;48.770;-1.564;2023-05-10T11:39:03;101807.81;;;17.62;66.50
80118;BME280;69424;48.770;-1.564;2023-05-10T11:41:32;101808.66;;;17.74;65.52
80118;BME280;69424;48.770;-1.564;2023-05-10T11:44:01;101807.20;;;17.80;65.37
80118;BME280;69424;48.770;-1.564;2023-05-10T11:46:29;101809.52;;;17.90;65.78
80118;BME280;69424;48.770;-1.564;2023-05-10T11:49:01;101808.59;;;18.00;64.63
80118;BME280;69424;48.770;-1.564;2023-05-10T11:51:36;101811.08;;;18.05;64.20
80118;BME280;69424;48.770;-1.564;2023-05-10T11:54:06;101810.70;;;18.05;63.81
80118;BME280;69424;48.770;-1.564;2023-05-10T11:56:39;101808.98;;;17.94;63.78
80118;BME280;69424;48.770;-1.564;2023-05-10T11:59:07;101808.96;;;17.94;64.18
80118;BME280;69424;48.770;-1.564;2023-05-10T12:01:36;101812.04;;;17.81;63.84
80118;BME280;69424;48.770;-1.564;2023-05-10T12:04:04;101809.76;;;17.66;64.52
80118;BME280;69424;48.770;-1.564;2023-05-10T12:06:37;101809.61;;;17.55;65.06
80118;BME280;69424;48.770;-1.564;2023-05-10T12:09:08;101809.29;;;17.47;65.23
80118;BME280;69424;48.770;-1.564;2023-05-10T12:11:40;101809.64;;;17.47;65.06
80118;BME280;69424;48.770;-1.564;2023-05-10T12:14:11;101808.39;;;17.48;65.52
80118;BME280;69424;48.770;-1.564;2023-05-10T12:16:39;101811.05;;;17.53;64.79
80118;BME280;69424;48.770;-1.564;2023-05-10T12:19:08;101807.47;;;17.55;63.86
80118;BME280;69424;48.770;-1.564;2023-05-10T12:21:36;101806.02;;;17.58;64.45
80118;BME280;69424;48.770;-1.564;2023-05-10T12:24:07;101803.69;;;17.64;64.21
80118;BME280;69424;48.770;-1.564;2023-05-10T12:26:35;101802.25;;;17.64;63.84
80118;BME280;69424;48.770;-1.564;2023-05-10T12:29:19;101801.36;;;17.64;64.42
80118;BME280;69424;48.770;-1.564;2023-05-10T12:31:57;101806.84;;;17.86;63.83
80118;BME280;69424;48.770;-1.564;2023-05-10T12:34:35;101804.16;;;17.88;63.14
80118;BME280;69424;48.770;-1.564;2023-05-10T12:37:04;101803.09;;;17.80;63.21
80118;BME280;69424;48.770;-1.564;2023-05-10T12:39:43;101803.86;;;17.64;62.90
80118;BME280;69424;48.770;-1.564;2023-05-10T12:42:12;101804.44;;;17.54;63.90
80118;BME280;69424;48.770;-1.564;2023-05-10T12:44:40;101803.36;;;17.55;64.21
80118;BME280;69424;48.770;-1.564;2023-05-10T12:47:08;101806.73;;;17.64;63.80
80118;BME280;69424;48.770;-1.564;2023-05-10T12:49:36;101800.05;;;17.84;64.33
80118;BME280;69424;48.770;-1.564;2023-05-10T12:52:04;101800.84;;;18.11;63.38
80118;BME280;69424;48.770;-1.564;2023-05-10T12:54:32;101801.60;;;18.34;63.32
80118;BME280;69424;48.770;-1.564;2023-05-10T12:57:02;101802.98;;;18.42;61.56
80118;BME280;69424;48.770;-1.564;2023-05-10T12:59:30;101806.80;;;18.34;61.49
80118;BME280;69424;48.770;-1.564;2023-05-10T13:01:58;101804.34;;;18.25;60.88
80118;BME280;69424;48.770;-1.564;2023-05-10T13:04:26;101807.58;;;18.22;60.92
80118;BME280;69424;48.770;-1.564;2023-05-10T13:06:54;101809.36;;;18.23;61.54
80118;BME280;69424;48.770;-1.564;2023-05-10T13:09:27;101810.66;;;18.45;61.85
80118;BME280;69424;48.770;-1.564;2023-05-10T13:11:57;101813.17;;;18.70;60.72
80118;BME280;69424;48.770;-1.564;2023-05-10T13:14:25;101808.45;;;18.78;59.07
80118;BME280;69424;48.770;-1.564;2023-05-10T13:16:54;101815.18;;;18.64;58.38